createdAt,value
2023-02-25T00:01:54.389Z,123.22
2023-02-25T00:04:29.046Z,118.47
2023-02-25T00:06:57.263Z,124.30
2023-02-25T00:09:25.306Z,130.60
2023-02-25T00:11:53.603Z,114.57
2023-02-25T00:14:21.466Z,121.53
2023-02-25T00:16:50.223Z,117.40
2023-02-25T00:19:18.113Z,118.35
2023-02-25T00:21:46.353Z,113.68
2023-02-25T00:24:16.817Z,119.30
2023-02-25T00:26:45.543Z,116.65
2023-02-25T00:29:15.192Z,125.13
2023-02-25T00:31:43.807Z,104.85
2023-02-25T00:34:11.855Z,118.65
2023-02-25T00:36:40.194Z,117.82
2023-02-25T00:39:09.473Z,112.18
2023-02-25T00:41:37.828Z,120.32
2023-02-25T00:44:05.828Z,123.70
2023-02-25T00:46:34.946Z,120.72
2023-02-25T00:49:03.077Z,113.35
2023-02-25T00:51:32.797Z,117.30
2023-02-25T00:54:00.917Z,108.15
2023-02-25T00:56:29.099Z,118.25
2023-02-25T00:58:56.976Z,113.45
2023-02-25T01:01:28.288Z,112.25
2023-02-25T01:03:57.504Z,115.88
2023-02-25T01:06:27.779Z,117.03
2023-02-25T01:08:57.072Z,121.72
2023-02-25T01:11:30.978Z,105.10
2023-02-25T01:14:02.199Z,121.95
2023-02-25T01:16:32.973Z,109.78
2023-02-25T01:19:05.146Z,113.53
2023-02-25T01:21:37.193Z,112.15
2023-02-25T01:24:23.762Z,109.25
2023-02-25T01:26:54.782Z,110.55
2023-02-25T01:29:48.891Z,109.53
2023-02-25T01:32:18.117Z,102.43
2023-02-25T01:34:46.011Z,112.25
2023-02-25T01:37:15.942Z,103.97
2023-02-25T01:39:43.773Z,108.00
2023-02-25T01:42:16.269Z,104.55
2023-02-25T01:45:23.498Z,101.85
2023-02-25T01:48:03.698Z,120.53
2023-02-25T01:50:42.277Z,101.88
2023-02-25T01:53:10.530Z,97.75
2023-02-25T01:55:41.097Z,107.88
2023-02-25T01:58:12.532Z,117.43
2023-02-25T02:00:41.239Z,94.03
2023-02-25T02:03:17.282Z,115.68
2023-02-25T02:06:00.030Z,100.55
2023-02-25T02:08:29.060Z,114.72
2023-02-25T02:10:58.098Z,105.43
2023-02-25T02:13:26.356Z,113.95
2023-02-25T02:16:19.328Z,103.80
2023-02-25T02:18:57.378Z,103.10
2023-02-25T02:21:57.448Z,105.85
2023-02-25T02:24:47.661Z,99.47
2023-02-25T02:27:27.677Z,94.93
2023-02-25T02:30:26.310Z,118.25
2023-02-25T02:33:04.577Z,105.78
2023-02-25T02:36:00.641Z,108.57
2023-02-25T02:38:42.428Z,114.45
2023-02-25T02:41:14.508Z,119.47
2023-02-25T02:43:52.675Z,124.88
2023-02-25T02:46:29.407Z,119.57
2023-02-25T02:49:04.621Z,120.03
2023-02-25T02:51:40.144Z,134.82
2023-02-25T02:54:12.182Z,127.75
2023-02-25T02:56:44.452Z,133.07
2023-02-25T02:59:28.386Z,131.10
2023-02-25T03:02:10.200Z,134.38
2023-02-25T03:04:42.067Z,127.72
2023-02-25T03:07:12.952Z,130.27
2023-02-25T03:09:50.648Z,125.60
2023-02-25T03:12:19.731Z,118.55
2023-02-25T03:14:48.697Z,123.15
2023-02-25T03:17:26.460Z,111.97
2023-02-25T03:20:28.449Z,119.95
2023-02-25T03:23:01.821Z,108.53
2023-02-25T03:25:38.374Z,107.75
2023-02-25T03:28:21.867Z,111.18
2023-02-25T03:31:08.222Z,112.32
2023-02-25T03:33:48.994Z,99.88
2023-02-25T03:36:26.579Z,90.22
2023-02-25T03:39:03.071Z,85.45
2023-02-25T03:41:36.724Z,95.72
2023-02-25T03:44:14.359Z,107.20
2023-02-25T03:46:45.012Z,96.15
2023-02-25T03:49:19.672Z,97.90
2023-02-25T03:51:50.973Z,90.05
2023-02-25T03:54:19.547Z,102.88
2023-02-25T03:56:51.547Z,100.82
2023-02-25T03:59:26.378Z,94.88
2023-02-25T04:01:56.823Z,99.97
2023-02-25T04:04:25.296Z,89.47
2023-02-25T04:06:53.223Z,95.30
2023-02-25T04:09:21.624Z,97.93
2023-02-25T04:11:49.493Z,90.82
2023-02-25T04:14:18.746Z,99.15
2023-02-25T04:16:47.609Z,89.10
2023-02-25T04:19:15.801Z,83.63
2023-02-25T04:21:44.042Z,102.97
2023-02-25T04:24:12.125Z,100.20
2023-02-25T04:26:39.955Z,93.95
2023-02-25T04:29:08.424Z,95.50
2023-02-25T04:31:36.291Z,89.35
2023-02-25T04:34:04.413Z,90.60
2023-02-25T04:36:35.036Z,86.72
2023-02-25T04:39:05.712Z,84.32
2023-02-25T04:41:36.046Z,93.88
2023-02-25T04:44:06.874Z,82.88
2023-02-25T04:46:40.247Z,94.68
2023-02-25T04:51:38.869Z,92.75
2023-02-25T04:54:06.991Z,83.45
2023-02-25T04:56:34.727Z,86.18
2023-02-25T04:59:02.873Z,89.47
2023-02-25T05:01:32.708Z,82.03
2023-02-25T05:04:00.889Z,78.38
2023-02-25T05:06:28.713Z,79.75
2023-02-25T05:08:57.906Z,81.75
2023-02-25T05:11:28.314Z,93.22
2023-02-25T05:13:57.621Z,83.10
2023-02-25T05:16:26.860Z,73.68
2023-02-25T05:18:55.556Z,87.72
2023-02-25T05:21:25.493Z,80.47
2023-02-25T05:23:54.438Z,78.78
2023-02-25T05:26:24.784Z,83.95
2023-02-25T05:28:55.433Z,84.57
2023-02-25T05:31:25.116Z,77.10
2023-02-25T05:33:53.961Z,89.72
2023-02-25T05:36:24.022Z,107.00
2023-02-25T05:38:55.476Z,76.82
2023-02-25T05:41:23.304Z,90.57
2023-02-25T05:43:51.420Z,87.10
2023-02-25T05:46:19.159Z,80.65
2023-02-25T05:48:47.307Z,91.70
2023-02-25T05:51:18.458Z,87.45
2023-02-25T05:53:48.154Z,88.28
2023-02-25T05:56:19.179Z,90.03
2023-02-25T05:58:48.720Z,86.90
2023-02-25T06:01:22.938Z,76.35
2023-02-25T06:03:58.873Z,78.03
2023-02-25T06:06:29.516Z,78.85
2023-02-25T06:08:58.269Z,80.38
2023-02-25T06:11:29.312Z,77.60
2023-02-25T06:13:58.999Z,77.60
2023-02-25T06:16:33.132Z,78.60
2023-02-25T06:19:02.063Z,78.18
2023-02-25T06:21:30.887Z,78.95
2023-02-25T06:23:59.247Z,63.83
2023-02-25T06:26:27.273Z,69.88
2023-02-25T06:28:56.732Z,66.05
2023-02-25T06:31:25.388Z,68.15
2023-02-25T06:33:55.211Z,76.22
2023-02-25T06:36:23.647Z,64.10
2023-02-25T06:38:51.914Z,66.78
2023-02-25T06:41:21.454Z,67.55
2023-02-25T06:43:52.356Z,67.78
2023-02-25T06:46:24.408Z,62.80
2023-02-25T06:48:53.625Z,79.15
2023-02-25T06:51:22.238Z,77.75
2023-02-25T06:53:51.406Z,74.00
2023-02-25T06:56:20.612Z,77.22
2023-02-25T06:58:48.811Z,70.75
2023-02-25T07:01:17.092Z,78.18
2023-02-25T07:03:45.322Z,73.60
2023-02-25T07:06:16.635Z,79.85
2023-02-25T07:08:46.066Z,65.30
2023-02-25T07:11:19.640Z,71.60
2023-02-25T07:13:49.275Z,77.45
2023-02-25T07:16:17.872Z,72.95
2023-02-25T07:18:46.135Z,72.40
2023-02-25T07:21:16.121Z,68.45
2023-02-25T07:23:44.988Z,63.50
2023-02-25T07:26:14.382Z,64.13
2023-02-25T07:28:43.754Z,69.45
2023-02-25T07:31:14.358Z,71.68
2023-02-25T07:33:43.420Z,67.40
2023-02-25T07:36:12.442Z,67.55
2023-02-25T07:38:41.234Z,58.10
2023-02-25T07:41:12.316Z,70.32
2023-02-25T07:43:41.161Z,66.32
2023-02-25T07:46:09.839Z,65.57
2023-02-25T07:48:37.996Z,63.90
2023-02-25T07:51:18.814Z,66.88
2023-02-25T07:53:48.177Z,67.10
2023-02-25T07:56:16.953Z,64.25
2023-02-25T07:58:45.514Z,60.55
2023-02-25T08:01:20.091Z,61.53
2023-02-25T08:03:49.328Z,67.85
2023-02-25T08:06:17.174Z,59.88
2023-02-25T08:08:45.682Z,67.00
2023-02-25T08:11:15.040Z,64.32
2023-02-25T08:13:43.447Z,74.07
2023-02-25T08:16:14.502Z,81.00
2023-02-25T08:18:43.036Z,74.05
2023-02-25T08:21:12.601Z,63.50
2023-02-25T08:23:41.289Z,60.40
2023-02-25T08:26:12.394Z,64.65
2023-02-25T08:28:40.786Z,56.90
2023-02-25T08:31:12.126Z,67.00
2023-02-25T08:33:43.748Z,57.13
2023-02-25T08:36:20.876Z,60.60
2023-02-25T08:38:50.446Z,86.70
2023-02-25T08:41:20.104Z,61.83
2023-02-25T08:43:52.204Z,53.05
2023-02-25T08:46:22.689Z,64.25
2023-02-25T08:48:53.134Z,69.53
2023-02-25T08:51:23.621Z,59.22
2023-02-25T08:53:52.481Z,51.50
2023-02-25T08:56:20.480Z,54.70
2023-02-25T08:58:48.705Z,56.25
2023-02-25T09:01:18.055Z,61.97
2023-02-25T09:03:54.197Z,59.70
2023-02-25T09:06:24.948Z,68.10
2023-02-25T09:08:54.792Z,59.50
2023-02-25T09:11:24.282Z,59.58
2023-02-25T09:13:54.425Z,64.50
2023-02-25T09:16:22.418Z,63.58
2023-02-25T09:18:51.915Z,54.75
2023-02-25T09:21:21.508Z,58.17
2023-02-25T09:23:53.352Z,62.58
2023-02-25T09:26:22.039Z,55.67
2023-02-25T09:28:50.918Z,57.13
2023-02-25T09:31:19.576Z,58.53
2023-02-25T09:33:48.146Z,54.25
2023-02-25T09:36:18.457Z,68.00
2023-02-25T09:38:48.722Z,49.33
2023-02-25T09:41:35.086Z,46.92
2023-02-25T09:44:29.174Z,52.83
2023-02-25T09:47:05.583Z,49.78
2023-02-25T09:50:03.490Z,47.30
2023-02-25T09:52:32.828Z,49.33
2023-02-25T09:55:24.436Z,38.88
2023-02-25T09:58:09.016Z,36.88
2023-02-25T10:00:57.285Z,40.83
2023-02-25T10:03:51.725Z,51.72
2023-02-25T10:06:30.216Z,34.65
2023-02-25T10:09:17.781Z,50.55
2023-02-25T10:12:19.400Z,44.67
2023-02-25T10:15:06.437Z,56.72
2023-02-25T10:18:00.880Z,60.80
2023-02-25T10:20:50.253Z,69.90
2023-02-25T10:23:39.878Z,148.43
2023-02-25T10:26:19.858Z,73.45
2023-02-25T10:28:55.435Z,50.53
2023-02-25T10:31:24.207Z,54.15
2023-02-25T10:33:54.237Z,64.65
2023-02-25T10:36:29.341Z,62.95
2023-02-25T10:38:58.047Z,42.47
2023-02-25T10:41:30.118Z,48.38
2023-02-25T10:43:58.627Z,53.58
2023-02-25T10:46:35.134Z,63.78
2023-02-25T10:49:16.397Z,64.10
2023-02-25T10:52:10.642Z,63.42
2023-02-25T10:54:53.369Z,47.63
2023-02-25T10:57:34.625Z,37.88
2023-02-25T11:00:13.405Z,42.42
2023-02-25T11:02:44.304Z,36.38
2023-02-25T11:05:43.768Z,37.22
2023-02-25T11:08:34.389Z,37.42
2023-02-25T11:11:13.569Z,29.60
2023-02-25T11:13:41.700Z,30.80
2023-02-25T11:16:14.056Z,38.80
2023-02-25T11:18:42.429Z,35.17
2023-02-25T11:21:13.727Z,45.25
2023-02-25T11:23:49.131Z,34.38
2023-02-25T11:26:38.254Z,23.73
2023-02-25T11:29:14.910Z,33.03
2023-02-25T11:31:44.276Z,33.60
2023-02-25T11:34:28.090Z,35.72
2023-02-25T11:37:00.249Z,36.33
2023-02-25T11:39:31.868Z,39.42
2023-02-25T11:42:23.406Z,28.33
2023-02-25T11:45:02.257Z,39.80
2023-02-25T11:47:33.911Z,33.47
2023-02-25T11:50:57.276Z,33.08
2023-02-25T11:53:45.253Z,39.25
2023-02-25T11:56:13.158Z,41.42
2023-02-25T11:59:03.156Z,29.30
2023-02-25T12:02:00.307Z,43.97
2023-02-25T12:04:34.356Z,36.15
2023-02-25T12:07:08.553Z,29.02
2023-02-25T12:10:07.030Z,32.08
2023-02-25T12:12:57.290Z,26.10
2023-02-25T12:15:57.696Z,26.90
2023-02-25T12:18:52.985Z,29.85
2023-02-25T12:21:50.519Z,44.33
2023-02-25T12:24:59.660Z,37.13
2023-02-25T12:28:08.806Z,25.13
2023-02-25T12:30:42.383Z,33.55
2023-02-25T12:33:32.107Z,29.75
2023-02-25T12:36:30.129Z,36.58
2023-02-25T12:39:25.946Z,33.85
2023-02-25T12:41:59.788Z,27.13
2023-02-25T12:44:39.311Z,34.47
2023-02-25T12:47:41.008Z,41.40
2023-02-25T12:50:27.150Z,39.10
2023-02-25T12:53:18.808Z,25.92
2023-02-25T12:56:34.224Z,32.78
2023-02-25T12:59:20.874Z,26.35
2023-02-25T13:02:12.485Z,37.00
2023-02-25T13:05:17.072Z,30.23
2023-02-25T13:08:12.653Z,22.35
2023-02-25T13:11:00.682Z,30.17
2023-02-25T13:14:14.124Z,30.88
2023-02-25T13:17:04.674Z,25.13
2023-02-25T13:20:00.660Z,20.70
2023-02-25T13:22:36.394Z,28.92
2023-02-25T13:25:23.565Z,33.33
2023-02-25T13:28:01.004Z,34.85
2023-02-25T13:30:58.332Z,47.67
2023-02-25T13:33:53.145Z,45.58
2023-02-25T13:36:53.173Z,48.92
2023-02-25T13:39:44.838Z,33.90
2023-02-25T13:42:54.474Z,24.65
2023-02-25T13:45:28.603Z,40.67
2023-02-25T13:48:17.382Z,39.58
2023-02-25T13:51:08.249Z,33.47
2023-02-25T13:54:00.715Z,33.63
2023-02-25T13:57:18.125Z,34.47
2023-02-25T14:00:24.090Z,49.28
2023-02-25T14:03:15.082Z,32.90
2023-02-25T14:06:12.814Z,34.78
2023-02-25T14:09:02.215Z,31.55
2023-02-25T14:11:37.844Z,31.98
2023-02-25T14:14:19.517Z,27.15
2023-02-25T14:17:09.813Z,32.42
2023-02-25T14:19:44.927Z,38.20
2023-02-25T14:22:36.888Z,36.67
2023-02-25T14:25:13.497Z,44.25
2023-02-25T14:28:00.302Z,46.17
2023-02-25T14:30:43.881Z,35.05
2023-02-25T14:36:02.856Z,54.65
2023-02-25T14:39:08.503Z,33.95
2023-02-25T14:41:49.511Z,40.17
2023-02-25T14:44:27.332Z,33.75
2023-02-25T14:47:01.179Z,35.28
2023-02-25T14:49:32.562Z,45.25
2023-02-25T14:52:41.934Z,46.20
2023-02-25T14:55:46.192Z,33.33
2023-02-25T14:58:26.359Z,41.25
2023-02-25T15:01:14.917Z,32.97
2023-02-25T15:04:30.790Z,40.35
2023-02-25T15:07:44.801Z,39.17
2023-02-25T15:10:36.061Z,37.63
2023-02-25T15:13:31.736Z,40.08
2023-02-25T15:16:02.611Z,58.53
2023-02-25T15:19:25.178Z,60.05
2023-02-25T15:22:18.770Z,37.47
2023-02-25T15:24:47.975Z,33.00
2023-02-25T15:27:38.263Z,43.92
2023-02-25T15:30:12.165Z,51.42
2023-02-25T15:32:54.873Z,33.30
2023-02-25T15:35:35.286Z,47.20
2023-02-25T15:38:08.750Z,37.92
2023-02-25T15:43:18.822Z,40.10
2023-02-25T15:46:08.934Z,42.63
2023-02-25T15:48:39.231Z,35.97
2023-02-25T15:51:31.954Z,44.38
2023-02-25T15:54:00.026Z,49.53
2023-02-25T15:56:47.583Z,43.13
2023-02-25T15:59:55.894Z,41.20
2023-02-25T16:02:27.228Z,51.08
2023-02-25T16:05:02.489Z,48.88
2023-02-25T16:07:37.993Z,39.42
2023-02-25T16:10:31.758Z,36.90
2023-02-25T16:13:01.280Z,54.50
2023-02-25T16:15:35.477Z,39.58
2023-02-25T16:18:15.685Z,37.55
2023-02-25T16:20:48.447Z,48.42
2023-02-25T16:23:17.945Z,41.58
2023-02-25T16:26:14.186Z,44.30
2023-02-25T16:29:06.494Z,43.05
2023-02-25T16:32:09.853Z,49.67
2023-02-25T16:34:52.340Z,58.43
2023-02-25T16:37:28.256Z,42.20
2023-02-25T16:39:58.298Z,63.10
2023-02-25T16:42:26.793Z,65.55
2023-02-25T16:45:02.244Z,84.97
2023-02-25T16:47:33.494Z,89.78
2023-02-25T16:50:11.796Z,74.82
2023-02-25T16:52:45.927Z,75.20
2023-02-25T16:55:21.394Z,81.18
2023-02-25T16:58:14.812Z,60.30
2023-02-25T17:00:52.668Z,62.60
2023-02-25T17:03:22.112Z,54.42
2023-02-25T17:06:18.184Z,51.28
2023-02-25T17:08:48.457Z,49.17
2023-02-25T17:11:18.985Z,51.95
2023-02-25T17:13:50.454Z,55.72
2023-02-25T17:16:30.758Z,46.28
2023-02-25T17:19:05.575Z,49.60
2023-02-25T17:21:38.405Z,52.13
2023-02-25T17:24:11.974Z,57.55
2023-02-25T17:26:42.459Z,47.72
2023-02-25T17:29:15.626Z,55.10
2023-02-25T17:31:52.876Z,59.60
2023-02-25T17:34:31.297Z,55.08
2023-02-25T17:37:03.600Z,63.67
2023-02-25T17:39:31.813Z,57.13
2023-02-25T17:42:00.457Z,54.42
2023-02-25T17:44:38.446Z,70.75
2023-02-25T17:47:09.865Z,86.75
2023-02-25T17:49:38.798Z,84.25
2023-02-25T17:52:32.198Z,91.28
2023-02-25T17:55:04.509Z,88.07
2023-02-25T17:57:34.006Z,97.30
2023-02-25T18:00:24.586Z,98.57
2023-02-25T18:03:19.629Z,108.95
2023-02-25T18:05:55.990Z,102.07
2023-02-25T18:08:26.784Z,97.25
2023-02-25T18:10:58.221Z,90.28
2023-02-25T18:13:34.073Z,107.88
2023-02-25T18:16:29.552Z,94.60
2023-02-25T18:19:00.014Z,112.03
2023-02-25T18:21:29.030Z,99.85
2023-02-25T18:23:59.441Z,101.25
2023-02-25T18:26:27.563Z,98.35
2023-02-25T18:28:57.918Z,94.03
2023-02-25T18:31:25.815Z,95.78
2023-02-25T18:33:55.207Z,97.15
2023-02-25T18:36:27.032Z,102.93
2023-02-25T18:39:00.907Z,97.60
2023-02-25T18:41:28.822Z,103.40
2023-02-25T18:43:56.942Z,105.55
2023-02-25T18:46:24.958Z,100.60
2023-02-25T18:48:53.310Z,104.35
2023-02-25T18:51:21.068Z,106.75
2023-02-25T18:53:49.130Z,101.18
2023-02-25T18:56:17.701Z,108.03
2023-02-25T18:58:45.945Z,98.97
2023-02-25T19:01:23.364Z,107.05
2023-02-25T19:03:52.375Z,91.40
2023-02-25T19:06:20.477Z,97.68
2023-02-25T19:08:49.116Z,99.72
2023-02-25T19:11:37.087Z,97.75
2023-02-25T19:14:06.852Z,110.60
2023-02-25T19:16:34.975Z,99.85
2023-02-25T19:19:03.233Z,94.65
2023-02-25T19:21:31.115Z,105.40
2023-02-25T19:23:59.219Z,105.40
2023-02-25T19:26:27.284Z,102.50
2023-02-25T19:28:55.745Z,107.20
2023-02-25T19:31:23.600Z,102.32
2023-02-25T19:33:51.660Z,103.13
2023-02-25T19:36:19.409Z,98.95
2023-02-25T19:38:47.429Z,97.38
2023-02-25T19:41:15.268Z,105.88
2023-02-25T19:43:43.406Z,107.88
2023-02-25T19:46:11.317Z,101.45
2023-02-25T19:48:39.533Z,103.28
2023-02-25T19:51:09.564Z,101.43
2023-02-25T19:53:37.790Z,103.18
2023-02-25T19:56:08.029Z,105.05
2023-02-25T19:58:36.262Z,110.97
2023-02-25T20:01:08.918Z,102.35
2023-02-25T20:03:37.203Z,104.20
2023-02-25T20:06:12.274Z,97.00
2023-02-25T20:08:41.437Z,106.95
2023-02-25T20:11:10.802Z,102.35
2023-02-25T20:13:38.903Z,102.70
2023-02-25T20:16:07.142Z,120.55
2023-02-25T20:18:35.777Z,108.20
2023-02-25T20:21:04.327Z,108.22
2023-02-25T20:23:32.440Z,102.28
2023-02-25T20:26:08.661Z,112.68
2023-02-25T20:28:37.160Z,100.32
2023-02-25T20:31:14.985Z,107.30
2023-02-25T20:33:43.869Z,103.32
2023-02-25T20:36:24.362Z,117.53
2023-02-25T20:39:13.384Z,98.90
2023-02-25T20:41:45.317Z,105.45
2023-02-25T20:44:14.554Z,107.22
2023-02-25T20:46:43.322Z,94.82
2023-02-25T20:49:14.717Z,116.45
2023-02-25T20:51:44.932Z,96.80
2023-02-25T20:54:15.166Z,101.53
2023-02-25T20:56:43.519Z,100.65
2023-02-25T20:59:13.466Z,109.15
2023-02-25T21:01:42.628Z,106.07
2023-02-25T21:04:11.384Z,103.60
2023-02-25T21:06:39.736Z,116.13
2023-02-25T21:09:08.279Z,114.88
2023-02-25T21:11:36.037Z,111.70
2023-02-25T21:14:04.284Z,100.55
2023-02-25T21:16:32.556Z,102.40
2023-02-25T21:19:01.312Z,99.32
2023-02-25T21:21:31.750Z,103.25
2023-02-25T21:23:59.827Z,102.57
2023-02-25T21:26:27.518Z,108.35
2023-02-25T21:28:55.628Z,108.13
2023-02-25T21:31:23.669Z,103.75
2023-02-25T21:33:52.018Z,97.47
2023-02-25T21:36:19.909Z,115.00
2023-02-25T21:38:47.964Z,103.05
2023-02-25T21:41:16.980Z,107.32
2023-02-25T21:43:45.382Z,110.53
2023-02-25T21:46:16.614Z,103.97
2023-02-25T21:48:47.486Z,111.80
2023-02-25T21:51:26.255Z,106.93
2023-02-25T21:53:56.691Z,99.82
2023-02-25T21:56:26.143Z,104.15
2023-02-25T21:58:59.940Z,100.10
2023-02-25T22:01:30.824Z,112.28
2023-02-25T22:03:59.426Z,94.40
2023-02-25T22:06:28.378Z,117.15
2023-02-25T22:08:57.536Z,116.70
2023-02-25T22:11:30.915Z,102.60
2023-02-25T22:14:01.107Z,110.85
2023-02-25T22:16:29.500Z,110.13
2023-02-25T22:18:58.857Z,104.95
2023-02-25T22:21:32.440Z,114.80
2023-02-25T22:24:03.035Z,107.70
2023-02-25T22:26:33.124Z,119.65
2023-02-25T22:29:04.978Z,115.15
2023-02-25T22:31:34.309Z,110.65
2023-02-25T22:34:03.080Z,110.43
2023-02-25T22:36:30.977Z,109.65
2023-02-25T22:38:59.062Z,111.32
2023-02-25T22:41:29.314Z,101.68
2023-02-25T22:43:58.847Z,109.95
2023-02-25T22:46:29.866Z,108.45
2023-02-25T22:48:58.884Z,101.88
2023-02-25T22:51:32.564Z,113.45
2023-02-25T22:54:00.986Z,107.45
2023-02-25T22:56:29.197Z,117.65
2023-02-25T22:58:57.331Z,111.60
2023-02-25T23:01:26.864Z,114.57
2023-02-25T23:03:56.143Z,128.07
2023-02-25T23:06:37.450Z,108.05
2023-02-25T23:09:11.620Z,119.40
2023-02-25T23:11:42.133Z,110.90
2023-02-25T23:14:10.969Z,113.28
2023-02-25T23:16:42.222Z,117.07
2023-02-25T23:19:14.164Z,113.05
2023-02-25T23:21:42.058Z,104.47
2023-02-25T23:24:16.469Z,109.07
2023-02-25T23:26:45.565Z,105.82
2023-02-25T23:29:13.845Z,104.80
2023-02-25T23:31:47.401Z,101.88
2023-02-25T23:34:23.620Z,110.30
2023-02-25T23:36:56.759Z,110.05
2023-02-25T23:39:25.647Z,109.82
2023-02-25T23:41:53.472Z,113.75
2023-02-25T23:44:21.569Z,110.10
2023-02-25T23:46:49.307Z,117.90
2023-02-25T23:49:18.131Z,110.63
2023-02-25T23:51:47.549Z,103.93
2023-02-25T23:54:19.216Z,109.55
2023-02-25T23:56:47.339Z,120.38
2023-02-25T23:59:16.424Z,110.97
